Terminal Aerodrome Forecast
Issued by NWS

Home | Current Version | Previous Version | Text Only | Print | Product List | Glossary On
Versions: 1 2 3 4 5 6 7 8 9 10 11 12 13
559
FTUS44 KJAN 211720
TAFHKS
TAF
KHKS 211720Z 2118/2218 16013G19KT P6SM SCT040 BKN100
     FM220600 17014G18KT P6SM SCT015 OVC020
     FM221200 17017KT 6SM -RA OVC015
     FM221600 21013G19KT P6SM -RA OVC025=

USA.gov is the U.S. government's official web portal to all federal, state and local government web resources and services.